Time;durP1;ratioP1;P1;durP2;ratioP2;P2;SDS_P1;SDS_P2;PMS_P1;PMS_P2;Temp;Humidity;BMP_temperature;BMP_pressure;BME280_temperature;BME280_humidity;BME280_pressure;Samples;Min_cycle;Max_cycle;Signal;HPM_P1;HPM_P2
2021/01/14 00:02:04;;;;;;;2.00;1.20;;;6.00;99.90;;;;;;5088601;28;20198;-81
2021/01/14 00:04:30;;;;;;;3.53;1.27;;;6.00;99.90;;;;;;5089189;28;20231;-82
2021/01/14 00:06:58;;;;;;;3.40;1.27;;;6.00;99.90;;;;;;5088214;28;20201;-82
2021/01/14 00:09:24;;;;;;;1.38;1.10;;;5.90;99.90;;;;;;5087549;28;20224;-82
2021/01/14 00:11:50;;;;;;;4.65;1.48;;;6.00;99.90;;;;;;5077150;28;20213;-82
2021/01/14 00:14:17;;;;;;;3.65;1.38;;;5.90;99.90;;;;;;5076841;28;20202;-81
2021/01/14 00:16:43;;;;;;;2.63;1.10;;;5.90;99.90;;;;;;5084722;28;20221;-85
2021/01/14 00:19:10;;;;;;;6.30;1.33;;;6.00;99.90;;;;;;5088108;28;20193;-78
2021/01/14 00:21:41;;;;;;;2.17;1.10;;;6.00;99.90;;;;;;5090923;28;20209;-80
2021/01/14 00:24:08;;;;;;;2.17;0.95;;;5.90;99.90;;;;;;5089644;28;20205;-79
2021/01/14 00:26:35;;;;;;;3.10;1.25;;;5.90;99.90;;;;;;5085305;28;20190;-80
2021/01/14 00:29:01;;;;;;;4.15;1.38;;;5.90;99.90;;;;;;5090685;28;20190;-77
2021/01/14 00:31:27;;;;;;;3.53;1.20;;;5.90;99.90;;;;;;5091829;28;20212;-77
2021/01/14 00:33:54;;;;;;;4.97;1.05;;;5.90;99.90;;;;;;5091033;28;20201;-79
2021/01/14 00:36:30;;;;;;;1.90;1.08;;;5.90;99.90;;;;;;5075881;28;20680;-78
2021/01/14 00:38:57;;;;;;;2.08;1.23;;;5.80;99.90;;;;;;5084133;28;20224;-78
2021/01/14 00:41:24;;;;;;;7.50;1.67;;;5.80;99.90;;;;;;5072268;28;20232;-76
2021/01/14 00:43:50;;;;;;;1.40;1.10;;;5.80;99.90;;;;;;5072210;28;20204;-76
2021/01/14 00:46:18;;;;;;;2.67;1.23;;;5.80;99.90;;;;;;5078102;28;20630;-76
2021/01/14 00:48:44;;;;;;;2.78;1.60;;;5.80;99.90;;;;;;5092838;28;20205;-75
2021/01/14 00:51:11;;;;;;;1.45;1.17;;;5.80;99.90;;;;;;5091006;28;20201;-76
2021/01/14 00:53:38;;;;;;;3.40;1.60;;;5.80;99.90;;;;;;5091465;28;20201;-77
2021/01/14 00:56:05;;;;;;;3.50;1.00;;;5.80;99.90;;;;;;5089121;28;20335;-77
2021/01/14 00:58:33;;;;;;;3.17;1.33;;;5.80;99.90;;;;;;5072023;28;20197;-76
2021/01/14 01:00:59;;;;;;;1.35;0.90;;;5.80;99.90;;;;;;5071998;28;20202;-76
2021/01/14 01:03:25;;;;;;;3.97;1.70;;;5.80;99.90;;;;;;5072501;28;20190;-76
2021/01/14 01:05:52;;;;;;;3.30;1.17;;;5.80;99.90;;;;;;5071710;28;20239;-76
2021/01/14 01:08:18;;;;;;;1.20;0.90;;;5.70;99.90;;;;;;5071748;28;20198;-76
2021/01/14 01:10:45;;;;;;;8.02;1.88;;;5.70;99.90;;;;;;5071933;28;20216;-76
2021/01/14 01:13:11;;;;;;;3.20;1.13;;;5.80;99.90;;;;;;5078338;28;20199;-76
2021/01/14 01:15:38;;;;;;;2.95;1.25;;;5.80;99.90;;;;;;5083254;28;20213;-76
2021/01/14 01:18:04;;;;;;;6.07;1.35;;;5.80;99.90;;;;;;5084334;28;20228;-76
2021/01/14 01:20:30;;;;;;;2.80;1.20;;;5.70;99.90;;;;;;5085701;28;20190;-75
2021/01/14 01:22:57;;;;;;;5.88;1.10;;;5.70;99.90;;;;;;5072264;28;20205;-75
2021/01/14 01:25:23;;;;;;;3.65;1.52;;;5.80;99.90;;;;;;5074126;28;20205;-75
2021/01/14 01:27:50;;;;;;;5.45;1.23;;;5.80;99.90;;;;;;5081470;28;20575;-75
2021/01/14 01:30:17;;;;;;;2.20;1.50;;;5.80;99.90;;;;;;5076506;28;20213;-75
2021/01/14 01:32:47;;;;;;;2.45;1.25;;;5.70;99.90;;;;;;5072076;28;20202;-75
2021/01/14 01:35:13;;;;;;;3.25;1.38;;;5.70;99.90;;;;;;5072673;28;20247;-75
2021/01/14 01:37:40;;;;;;;1.20;0.93;;;5.70;99.90;;;;;;5076108;28;20222;-75
2021/01/14 01:40:07;;;;;;;1.63;0.90;;;5.70;99.90;;;;;;5078883;28;20259;-75
2021/01/14 01:42:33;;;;;;;5.00;1.42;;;5.70;99.90;;;;;;5074095;28;20204;-75
2021/01/14 01:45:00;;;;;;;4.57;1.52;;;5.70;99.90;;;;;;5076530;28;20650;-75
2021/01/14 01:47:33;;;;;;;3.15;1.30;;;5.70;99.90;;;;;;5086608;28;20575;-76
2021/01/14 01:50:02;;;;;;;2.60;1.00;;;5.70;99.90;;;;;;5091354;28;20202;-75
2021/01/14 01:52:31;;;;;;;4.10;1.00;;;5.70;99.90;;;;;;5085585;28;20558;-76
2021/01/14 01:54:58;;;;;;;4.63;1.05;;;5.70;99.90;;;;;;5080713;28;20215;-76
2021/01/14 01:57:24;;;;;;;4.00;1.35;;;5.70;99.90;;;;;;5085771;28;20214;-76
2021/01/14 01:59:51;;;;;;;2.03;1.27;;;5.70;99.90;;;;;;5075644;28;20251;-76
2021/01/14 02:02:23;;;;;;;1.80;1.15;;;5.70;99.90;;;;;;5074541;28;20634;-76
2021/01/14 02:04:50;;;;;;;1.90;1.00;;;5.60;99.90;;;;;;5076396;28;20593;-76
2021/01/14 02:07:25;;;;;;;2.03;0.95;;;5.60;99.90;;;;;;5077655;28;20208;-76
2021/01/14 02:09:55;;;;;;;5.00;1.77;;;5.60;99.90;;;;;;5082188;28;20197;-77
2021/01/14 02:12:29;;;;;;;0.90;0.80;;;5.60;99.90;;;;;;5087896;28;20190;-77
2021/01/14 02:14:56;;;;;;;2.75;1.35;;;5.60;99.90;;;;;;5074833;28;20212;-75
2021/01/14 02:17:25;;;;;;;2.55;1.05;;;5.60;99.90;;;;;;5084542;28;20222;-75
2021/01/14 02:19:54;;;;;;;3.95;1.38;;;5.60;99.90;;;;;;5075174;28;20202;-75
2021/01/14 02:22:25;;;;;;;5.15;2.08;;;5.60;99.90;;;;;;5089027;28;20220;-75
2021/01/14 02:25:02;;;;;;;2.25;1.02;;;5.60;99.90;;;;;;5092562;28;20206;-75
2021/01/14 02:27:30;;;;;;;2.85;1.20;;;5.60;99.90;;;;;;5080067;28;20550;-75
2021/01/14 02:29:58;;;;;;;2.95;1.10;;;5.60;99.90;;;;;;5075137;28;20194;-75
2021/01/14 02:32:25;;;;;;;1.73;1.42;;;5.60;99.90;;;;;;5074633;28;20202;-75
2021/01/14 02:34:51;;;;;;;3.92;1.10;;;5.60;99.90;;;;;;5089546;28;20189;-76
2021/01/14 02:37:17;;;;;;;1.55;0.95;;;5.60;99.90;;;;;;5089872;28;20239;-76
2021/01/14 02:39:44;;;;;;;2.75;1.10;;;5.60;99.90;;;;;;5093641;28;20201;-75
2021/01/14 02:42:10;;;;;;;4.63;1.10;;;5.50;99.90;;;;;;5093143;28;20279;-75
2021/01/14 02:44:37;;;;;;;2.83;0.90;;;5.60;99.90;;;;;;5080104;28;20204;-76
2021/01/14 02:47:06;;;;;;;1.50;0.98;;;5.50;99.90;;;;;;5073987;28;20192;-75
2021/01/14 02:49:38;;;;;;;3.45;1.00;;;5.50;99.90;;;;;;5081458;28;20634;-76
2021/01/14 02:52:06;;;;;;;2.58;1.00;;;5.50;99.90;;;;;;5074984;28;20193;-75
2021/01/14 02:54:35;;;;;;;3.40;1.10;;;5.50;99.90;;;;;;5082959;28;20641;-75
2021/01/14 02:57:01;;;;;;;4.20;1.20;;;5.50;99.90;;;;;;5086795;28;20214;-76
2021/01/14 02:59:28;;;;;;;3.58;1.33;;;5.60;99.90;;;;;;5074403;28;20225;-75
2021/01/14 03:01:55;;;;;;;2.58;1.90;;;5.50;99.90;;;;;;5079033;28;20232;-75
2021/01/14 03:04:21;;;;;;;6.05;1.10;;;5.50;99.90;;;;;;5073957;28;20202;-75
2021/01/14 03:06:48;;;;;;;4.55;1.45;;;5.50;99.90;;;;;;5080576;28;20258;-75
2021/01/14 03:09:14;;;;;;;3.08;1.10;;;5.50;99.90;;;;;;5077532;28;20202;-75
2021/01/14 03:11:40;;;;;;;2.85;1.00;;;5.60;99.90;;;;;;5094996;28;20197;-75
2021/01/14 03:14:07;;;;;;;1.70;0.80;;;5.60;99.90;;;;;;5091329;28;20824;-75
2021/01/14 03:16:37;;;;;;;3.67;1.00;;;5.50;99.90;;;;;;5081512;28;20539;-75
2021/01/14 03:19:04;;;;;;;4.03;1.33;;;5.60;99.90;;;;;;5081498;28;20209;-76
2021/01/14 03:21:30;;;;;;;2.20;1.20;;;5.60;99.90;;;;;;5086654;28;20220;-76
2021/01/14 03:23:57;;;;;;;4.60;1.27;;;5.60;99.90;;;;;;5085253;28;20202;-76
2021/01/14 03:26:23;;;;;;;1.75;1.10;;;5.60;99.90;;;;;;5088215;28;20255;-76
2021/01/14 03:28:51;;;;;;;1.35;0.95;;;5.50;99.90;;;;;;5083868;28;20198;-76
2021/01/14 03:31:18;;;;;;;1.65;1.25;;;5.50;99.90;;;;;;5084977;28;20197;-76
2021/01/14 03:33:45;;;;;;;1.00;0.80;;;5.50;99.90;;;;;;5082134;28;20321;-76
2021/01/14 03:36:16;;;;;;;2.30;1.08;;;5.50;99.90;;;;;;5080303;28;20528;-76
2021/01/14 03:38:42;;;;;;;3.35;1.15;;;5.50;99.90;;;;;;5085289;28;20594;-75
2021/01/14 03:41:09;;;;;;;1.88;1.27;;;5.50;99.90;;;;;;5078867;28;20205;-75
2021/01/14 03:43:36;;;;;;;1.45;0.90;;;5.50;99.90;;;;;;5086667;28;20193;-75
2021/01/14 03:46:08;;;;;;;1.45;0.98;;;5.50;99.90;;;;;;5079728;28;20663;-76
2021/01/14 03:48:39;;;;;;;1.50;0.90;;;5.50;99.90;;;;;;5082498;28;20186;-76
2021/01/14 03:51:14;;;;;;;1.92;1.10;;;5.50;99.90;;;;;;5086005;28;20197;-75
2021/01/14 03:53:40;;;;;;;3.25;1.35;;;5.50;99.90;;;;;;5087697;28;20190;-76
2021/01/14 03:56:06;;;;;;;3.03;1.48;;;5.40;99.90;;;;;;5077952;28;20652;-76
2021/01/14 03:58:34;;;;;;;4.30;1.30;;;5.40;99.90;;;;;;5076408;28;20228;-76
2021/01/14 04:01:00;;;;;;;2.13;1.20;;;5.40;99.90;;;;;;5074140;28;20201;-76
2021/01/14 04:03:26;;;;;;;2.33;1.10;;;5.40;99.90;;;;;;5085666;28;20204;-77
2021/01/14 04:05:53;;;;;;;3.55;1.30;;;5.40;99.90;;;;;;5086636;28;20626;-76
2021/01/14 04:08:20;;;;;;;2.97;1.63;;;5.40;99.90;;;;;;5072682;28;20198;-76
2021/01/14 04:10:46;;;;;;;2.45;1.20;;;5.40;99.90;;;;;;5084176;28;20237;-76
2021/01/14 04:13:14;;;;;;;4.38;1.63;;;5.40;99.90;;;;;;5090265;28;20197;-76
2021/01/14 04:15:40;;;;;;;2.97;1.13;;;5.40;99.90;;;;;;5087439;28;20285;-76
2021/01/14 04:18:07;;;;;;;1.90;1.20;;;5.40;99.90;;;;;;5077670;28;20692;-75
2021/01/14 04:20:33;;;;;;;2.28;1.00;;;5.40;99.90;;;;;;5074395;28;20209;-75
2021/01/14 04:22:59;;;;;;;1.33;1.10;;;5.40;99.90;;;;;;5092057;28;20197;-75
2021/01/14 04:25:30;;;;;;;3.47;1.23;;;5.40;99.90;;;;;;5092074;28;20659;-76
2021/01/14 04:27:59;;;;;;;3.03;1.10;;;5.40;99.90;;;;;;5081442;28;20197;-76
2021/01/14 04:30:25;;;;;;;2.10;0.90;;;5.40;99.90;;;;;;5091625;28;20201;-76
2021/01/14 04:32:57;;;;;;;2.45;1.40;;;5.40;99.90;;;;;;5073770;28;20209;-76
2021/01/14 04:35:27;;;;;;;2.08;0.90;;;5.40;99.90;;;;;;5076155;28;20218;-76
2021/01/14 04:37:53;;;;;;;1.75;0.82;;;5.40;99.90;;;;;;5084419;28;20232;-76
2021/01/14 04:40:20;;;;;;;3.08;1.13;;;5.40;99.90;;;;;;5087838;28;22587;-78
2021/01/14 04:42:50;;;;;;;1.20;0.80;;;5.40;99.90;;;;;;5086937;28;20204;-76
2021/01/14 04:45:19;;;;;;;4.07;1.13;;;5.40;99.90;;;;;;5087106;28;20185;-76
2021/01/14 04:47:49;;;;;;;3.53;1.27;;;5.40;99.90;;;;;;5076283;28;20198;-76
2021/01/14 04:50:17;;;;;;;2.85;1.48;;;5.40;99.90;;;;;;5079868;28;20582;-78
2021/01/14 04:52:47;;;;;;;2.65;1.10;;;5.40;99.90;;;;;;5081173;28;20201;-78
2021/01/14 04:55:14;;;;;;;9.40;1.60;;;5.40;99.90;;;;;;5081623;28;20193;-76
2021/01/14 04:57:43;;;;;;;4.30;1.00;;;5.40;99.90;;;;;;5077272;28;20206;-78
2021/01/14 05:00:13;;;;;;;1.40;0.90;;;5.30;99.90;;;;;;5082526;28;20197;-78
2021/01/14 05:02:57;;;;;;;5.00;1.40;;;5.40;99.90;;;;;;5085084;28;20197;-77
2021/01/14 05:05:25;;;;;;;1.20;0.93;;;5.30;99.90;;;;;;5081391;28;20190;-78
2021/01/14 05:08:06;;;;;;;2.88;1.15;;;5.40;99.90;;;;;;5084950;28;20217;-79
2021/01/14 05:10:34;;;;;;;2.15;0.82;;;5.30;99.90;;;;;;5078659;28;20639;-78
2021/01/14 05:13:00;;;;;;;1.90;0.90;;;5.30;99.90;;;;;;5078267;28;20193;-79
2021/01/14 05:15:29;;;;;;;2.80;0.95;;;5.30;99.90;;;;;;5082950;28;20198;-79
2021/01/14 05:17:57;;;;;;;1.67;1.20;;;5.30;99.90;;;;;;5076924;28;20222;-80
2021/01/14 05:20:23;;;;;;;6.07;1.48;;;5.30;99.90;;;;;;5078796;28;20200;-77
2021/01/14 05:22:56;;;;;;;2.40;1.10;;;5.30;99.90;;;;;;5082109;28;20209;-77
2021/01/14 05:25:22;;;;;;;5.40;1.30;;;5.30;99.90;;;;;;5075716;28;20194;-78
2021/01/14 05:27:48;;;;;;;2.95;1.30;;;5.30;99.90;;;;;;5078097;28;20194;-78
2021/01/14 05:30:16;;;;;;;2.60;1.00;;;5.30;99.90;;;;;;5073257;28;20212;-78
2021/01/14 05:32:45;;;;;;;4.43;1.23;;;5.30;99.90;;;;;;5081960;28;20193;-78
2021/01/14 05:35:13;;;;;;;3.28;1.08;;;5.30;99.90;;;;;;5077037;28;20194;-77
2021/01/14 05:37:42;;;;;;;1.45;1.30;;;5.20;99.90;;;;;;5076774;28;20217;-77
2021/01/14 05:40:12;;;;;;;3.17;0.90;;;5.30;99.90;;;;;;5079858;28;20529;-78
2021/01/14 05:42:39;;;;;;;6.05;1.27;;;5.30;99.90;;;;;;5081783;28;20200;-78
2021/01/14 05:45:21;;;;;;;5.22;1.35;;;5.30;99.90;;;;;;5076035;28;20201;-77
2021/01/14 05:47:48;;;;;;;2.47;1.20;;;5.20;99.90;;;;;;5078788;28;20311;-77
2021/01/14 05:50:14;;;;;;;1.10;0.93;;;5.20;99.90;;;;;;5077342;28;20193;-77
2021/01/14 05:52:42;;;;;;;2.35;1.30;;;5.20;99.90;;;;;;5078906;28;20197;-77
2021/01/14 05:55:10;;;;;;;2.17;1.20;;;5.20;99.90;;;;;;5079627;28;20194;-77
2021/01/14 05:57:38;;;;;;;3.88;1.33;;;5.30;99.90;;;;;;5079223;28;20217;-77
2021/01/14 06:00:11;;;;;;;2.00;1.15;;;5.20;99.90;;;;;;5080869;28;20644;-78
2021/01/14 06:02:37;;;;;;;2.00;1.30;;;5.30;99.90;;;;;;5075444;28;20193;-77
2021/01/14 06:05:25;;;;;;;4.40;1.05;;;5.30;99.90;;;;;;5080622;28;20262;-77
2021/01/14 06:07:53;;;;;;;5.95;1.75;;;5.20;99.90;;;;;;5073974;28;20201;-77
2021/01/14 06:10:30;;;;;;;1.67;1.25;;;5.30;99.90;;;;;;5081848;28;20206;-77
2021/01/14 06:12:56;;;;;;;2.97;1.45;;;5.20;99.90;;;;;;5084131;28;20197;-77
2021/01/14 06:15:23;;;;;;;2.58;1.30;;;5.20;99.90;;;;;;5071696;28;20198;-77
2021/01/14 06:17:50;;;;;;;3.33;1.10;;;5.20;99.90;;;;;;5075083;28;20606;-77
2021/01/14 06:20:18;;;;;;;2.78;1.25;;;5.30;99.90;;;;;;5081618;28;20193;-76
2021/01/14 06:22:44;;;;;;;3.67;1.40;;;5.20;99.90;;;;;;5078661;28;20201;-76
2021/01/14 06:25:11;;;;;;;3.65;1.10;;;5.20;99.90;;;;;;5091258;28;20193;-76
2021/01/14 06:27:38;;;;;;;2.33;0.90;;;5.20;99.90;;;;;;5077732;28;20194;-76
2021/01/14 06:30:07;;;;;;;3.78;1.63;;;5.10;99.90;;;;;;5070973;28;20195;-76
2021/01/14 06:32:36;;;;;;;3.60;2.15;;;5.10;99.90;;;;;;5071543;28;20209;-77
2021/01/14 06:35:02;;;;;;;6.95;1.83;;;5.20;99.90;;;;;;5087367;28;20202;-76
2021/01/14 06:37:29;;;;;;;1.70;1.20;;;5.20;99.90;;;;;;5078231;28;20229;-76
2021/01/14 06:39:58;;;;;;;4.30;2.00;;;5.20;99.90;;;;;;5074727;28;20202;-76
2021/01/14 06:42:26;;;;;;;2.65;1.50;;;5.30;99.90;;;;;;5075023;28;20257;-76
2021/01/14 06:44:56;;;;;;;3.55;2.10;;;5.20;99.90;;;;;;5074665;28;20225;-76
2021/01/14 06:47:41;;;;;;;3.92;1.77;;;5.20;99.90;;;;;;5074380;28;20234;-76
2021/01/14 06:50:22;;;;;;;2.38;1.38;;;5.20;99.90;;;;;;5075235;28;20198;-77
2021/01/14 06:53:03;;;;;;;1.65;1.45;;;5.20;99.90;;;;;;5086369;28;20611;-76
2021/01/14 06:55:33;;;;;;;4.65;1.80;;;5.20;99.90;;;;;;5083272;28;20513;-77
2021/01/14 06:58:10;;;;;;;5.78;1.80;;;5.30;99.90;;;;;;5090682;28;20692;-76
2021/01/14 07:00:41;;;;;;;3.85;1.60;;;5.20;99.90;;;;;;5090783;28;20232;-77
2021/01/14 07:03:37;;;;;;;3.85;1.50;;;5.20;99.90;;;;;;5089553;28;20201;-77
2021/01/14 07:06:13;;;;;;;4.55;1.58;;;5.20;99.90;;;;;;5091977;28;20676;-77
2021/01/14 07:08:41;;;;;;;3.67;1.67;;;5.20;99.90;;;;;;5074248;28;20259;-78
2021/01/14 07:11:13;;;;;;;2.75;1.20;;;5.20;99.90;;;;;;5074313;28;20194;-77
2021/01/14 07:13:40;;;;;;;3.75;2.03;;;5.20;99.90;;;;;;5073484;28;20198;-77
2021/01/14 07:16:08;;;;;;;5.28;1.90;;;5.20;99.90;;;;;;5081059;28;20301;-77
2021/01/14 07:18:37;;;;;;;3.58;2.05;;;5.20;99.90;;;;;;5076726;28;20221;-77
2021/01/14 07:21:12;;;;;;;3.55;1.70;;;5.20;99.90;;;;;;5073273;28;20703;-77
2021/01/14 07:23:50;;;;;;;3.58;1.35;;;5.20;99.90;;;;;;5074460;28;20258;-76
2021/01/14 07:26:17;;;;;;;2.90;1.60;;;5.20;99.90;;;;;;5082820;28;20663;-77
2021/01/14 07:28:44;;;;;;;2.97;1.40;;;5.20;99.90;;;;;;5088066;28;20641;-77
2021/01/14 07:31:24;;;;;;;3.70;1.48;;;5.10;99.90;;;;;;5092931;28;20629;-76
2021/01/14 07:33:50;;;;;;;3.35;1.52;;;5.10;99.90;;;;;;5088478;28;20207;-76
2021/01/14 07:36:19;;;;;;;3.60;2.00;;;5.10;99.90;;;;;;5082529;28;20240;-77
2021/01/14 07:38:50;;;;;;;3.88;1.92;;;5.10;99.90;;;;;;5085865;28;20217;-76
2021/01/14 07:41:17;;;;;;;3.47;1.40;;;5.10;99.90;;;;;;5094354;28;20362;-77
2021/01/14 07:43:45;;;;;;;3.42;1.67;;;5.10;99.90;;;;;;5078758;28;20202;-77
2021/01/14 07:46:20;;;;;;;2.50;1.02;;;5.10;99.90;;;;;;5088600;28;20771;-75
2021/01/14 07:48:47;;;;;;;4.00;1.77;;;5.20;99.90;;;;;;5091237;28;20641;-76
2021/01/14 07:51:15;;;;;;;5.22;1.88;;;5.10;99.90;;;;;;5091070;28;20251;-76
2021/01/14 07:53:42;;;;;;;9.18;1.90;;;5.10;99.90;;;;;;5093068;28;20190;-76
2021/01/14 07:56:25;;;;;;;4.55;1.90;;;5.10;99.90;;;;;;5076686;28;20205;-76
2021/01/14 07:58:55;;;;;;;2.75;1.85;;;5.10;99.90;;;;;;5073203;28;20222;-76
2021/01/14 08:01:22;;;;;;;4.50;1.38;;;5.10;99.90;;;;;;5084842;28;20194;-76
2021/01/14 08:03:48;;;;;;;2.47;1.85;;;5.10;99.90;;;;;;5073002;28;20569;-76
2021/01/14 08:06:22;;;;;;;1.85;1.60;;;5.10;99.90;;;;;;5074726;28;20273;-76
2021/01/14 08:09:01;;;;;;;1.90;1.60;;;5.10;99.90;;;;;;5081914;28;20249;-75
2021/01/14 08:11:29;;;;;;;4.82;1.55;;;5.10;99.90;;;;;;5079745;28;20204;-75
2021/01/14 08:14:10;;;;;;;5.43;2.13;;;5.10;99.90;;;;;;5077190;28;20198;-76
2021/01/14 08:16:38;;;;;;;1.67;1.33;;;5.10;99.90;;;;;;5077788;28;20198;-76
2021/01/14 08:19:18;;;;;;;5.47;1.55;;;5.10;99.90;;;;;;5073326;28;20231;-76
2021/01/14 08:21:46;;;;;;;1.70;1.48;;;5.10;99.90;;;;;;5077422;28;20201;-77
2021/01/14 08:24:32;;;;;;;10.60;1.80;;;5.20;99.90;;;;;;5086655;28;20625;-76
2021/01/14 08:27:02;;;;;;;1.58;1.30;;;5.10;99.90;;;;;;5092881;28;20251;-76
2021/01/14 08:29:33;;;;;;;4.40;1.88;;;5.10;99.90;;;;;;5083092;28;20537;-75
2021/01/14 08:32:00;;;;;;;2.10;1.60;;;5.10;99.90;;;;;;5075632;28;20205;-75
2021/01/14 08:34:27;;;;;;;2.38;1.83;;;5.10;99.90;;;;;;5075537;28;20202;-76
2021/01/14 08:36:55;;;;;;;3.08;1.50;;;5.10;99.90;;;;;;5091413;28;20231;-76
2021/01/14 08:39:22;;;;;;;5.00;3.03;;;5.10;99.90;;;;;;5084996;28;20212;-76
2021/01/14 08:41:49;;;;;;;2.00;1.77;;;5.10;99.90;;;;;;5073075;28;20236;-76
2021/01/14 08:44:17;;;;;;;2.90;1.60;;;5.10;99.90;;;;;;5072319;28;20197;-76
2021/01/14 08:46:48;;;;;;;4.47;1.90;;;5.10;99.90;;;;;;5072706;28;20583;-76
2021/01/14 08:49:16;;;;;;;2.55;1.50;;;5.00;99.90;;;;;;5084549;28;20193;-76
2021/01/14 08:51:43;;;;;;;2.40;1.80;;;5.10;99.90;;;;;;5074121;28;20194;-76
2021/01/14 08:54:10;;;;;;;4.05;2.50;;;5.10;99.90;;;;;;5077306;28;20256;-76
2021/01/14 08:56:37;;;;;;;6.60;2.85;;;5.10;99.90;;;;;;5085856;28;20239;-76
2021/01/14 08:59:14;;;;;;;4.03;2.20;;;5.00;99.90;;;;;;5080763;28;20210;-76
2021/01/14 09:01:41;;;;;;;7.72;1.75;;;5.10;99.90;;;;;;5084797;28;20441;-76
2021/01/14 09:04:09;;;;;;;3.53;1.73;;;5.00;99.90;;;;;;5090749;28;20239;-76
2021/01/14 09:06:38;;;;;;;2.75;1.80;;;5.00;99.90;;;;;;5089298;28;20211;-76
2021/01/14 09:09:06;;;;;;;6.25;1.88;;;5.00;99.90;;;;;;5091055;28;20186;-76
2021/01/14 09:11:33;;;;;;;2.45;1.60;;;5.10;99.90;;;;;;5083127;28;20192;-76
2021/01/14 09:14:01;;;;;;;6.47;2.15;;;5.10;99.90;;;;;;5074616;28;20213;-75
2021/01/14 09:16:27;;;;;;;4.78;1.83;;;5.10;99.90;;;;;;5081935;28;20205;-76
2021/01/14 09:18:54;;;;;;;3.75;2.10;;;5.10;99.90;;;;;;5087584;28;20218;-75
2021/01/14 09:21:20;;;;;;;2.22;1.83;;;5.00;99.90;;;;;;5072290;28;20190;-75
2021/01/14 09:23:46;;;;;;;2.30;1.60;;;5.10;99.90;;;;;;5076902;28;20205;-75
2021/01/14 09:26:14;;;;;;;3.30;1.83;;;5.10;99.90;;;;;;5086480;28;20512;-75
2021/01/14 09:28:47;;;;;;;7.95;1.60;;;5.20;99.90;;;;;;5075294;28;20587;-75
2021/01/14 09:31:14;;;;;;;3.92;1.40;;;5.20;99.90;;;;;;5089573;28;20215;-76
2021/01/14 09:33:42;;;;;;;2.10;1.65;;;5.20;99.90;;;;;;5089454;28;20264;-75
2021/01/14 09:36:11;;;;;;;4.30;2.30;;;5.10;99.90;;;;;;5083859;28;20247;-75
2021/01/14 09:38:39;;;;;;;2.53;1.80;;;5.10;99.90;;;;;;5076782;28;20251;-75
2021/01/14 09:41:06;;;;;;;5.93;1.80;;;5.10;99.90;;;;;;5088250;28;20203;-75
2021/01/14 09:43:32;;;;;;;3.65;2.28;;;5.10;99.90;;;;;;5091896;28;20193;-76
2021/01/14 09:45:59;;;;;;;2.47;2.05;;;5.10;99.90;;;;;;5101920;28;20197;-76
2021/01/14 09:48:25;;;;;;;2.50;1.50;;;5.00;99.90;;;;;;5092786;28;20234;-76
2021/01/14 09:50:51;;;;;;;5.15;2.22;;;5.10;99.90;;;;;;5091339;28;20189;-76
2021/01/14 09:53:19;;;;;;;3.63;1.77;;;5.10;99.90;;;;;;5078341;28;20197;-76
2021/01/14 09:55:45;;;;;;;1.50;1.30;;;5.10;99.90;;;;;;5073757;28;20190;-76
2021/01/14 09:58:18;;;;;;;4.63;1.85;;;5.00;99.90;;;;;;5071882;28;21873;-76
2021/01/14 10:00:46;;;;;;;5.28;2.58;;;5.10;99.90;;;;;;5079853;28;20202;-76
2021/01/14 10:03:16;;;;;;;4.32;1.55;;;5.00;99.90;;;;;;5071658;28;20229;-76
2021/01/14 10:05:43;;;;;;;3.65;3.10;;;5.00;99.90;;;;;;5082783;28;20373;-76
2021/01/14 10:08:17;;;;;;;3.35;2.08;;;5.10;99.90;;;;;;5089055;28;20189;-76
2021/01/14 10:10:44;;;;;;;1.92;1.73;;;5.10;99.90;;;;;;5090066;28;20201;-76
2021/01/14 10:13:14;;;;;;;3.42;1.75;;;5.10;99.90;;;;;;5076152;28;20561;-76
2021/01/14 10:15:41;;;;;;;2.55;2.00;;;5.10;99.90;;;;;;5077297;28;20255;-76
2021/01/14 10:18:21;;;;;;;5.60;1.65;;;5.20;99.90;;;;;;5095692;28;20221;-76
2021/01/14 10:20:47;;;;;;;3.40;1.98;;;5.10;99.90;;;;;;5094831;28;20253;-76
2021/01/14 10:23:23;;;;;;;3.90;1.95;;;5.10;99.90;;;;;;5086536;28;20198;-76
2021/01/14 10:25:51;;;;;;;2.38;1.60;;;5.10;99.90;;;;;;5080207;28;20208;-76
2021/01/14 10:28:17;;;;;;;2.67;1.67;;;5.10;99.90;;;;;;5087827;28;20193;-76
2021/01/14 10:30:43;;;;;;;3.05;2.33;;;5.10;99.90;;;;;;5077878;28;20198;-76
2021/01/14 10:33:10;;;;;;;2.70;1.77;;;5.10;99.90;;;;;;5075215;28;20266;-76
2021/01/14 10:35:37;;;;;;;4.60;1.90;;;5.00;99.90;;;;;;5075272;28;20198;-76
2021/01/14 10:38:06;;;;;;;9.00;1.80;;;5.00;99.90;;;;;;5090145;28;20231;-76
2021/01/14 10:40:35;;;;;;;2.10;1.88;;;5.00;99.90;;;;;;5075732;28;20205;-75
2021/01/14 10:43:03;;;;;;;2.38;1.70;;;5.10;99.90;;;;;;5078685;28;20204;-76
2021/01/14 10:45:32;;;;;;;3.72;1.95;;;5.00;99.90;;;;;;5081090;28;20206;-75
2021/01/14 10:48:12;;;;;;;4.13;2.17;;;5.10;99.90;;;;;;5074731;28;20190;-76
2021/01/14 10:50:47;;;;;;;6.50;2.40;;;5.00;99.90;;;;;;5091111;28;20350;-76
2021/01/14 10:53:23;;;;;;;3.80;1.85;;;5.10;99.90;;;;;;5074686;28;20266;-76
2021/01/14 10:56:04;;;;;;;4.88;1.70;;;5.00;99.90;;;;;;5080112;28;20201;-76
2021/01/14 10:58:31;;;;;;;4.40;1.85;;;5.10;99.90;;;;;;5087464;28;20206;-76
2021/01/14 11:00:58;;;;;;;6.65;2.53;;;5.10;99.90;;;;;;5074594;28;20201;-77
2021/01/14 11:03:26;;;;;;;10.02;2.50;;;5.10;99.90;;;;;;5075149;28;20285;-77
2021/01/14 11:05:53;;;;;;;4.38;2.20;;;5.00;99.90;;;;;;5074839;28;20288;-77
2021/01/14 11:08:21;;;;;;;4.43;2.10;;;5.00;99.90;;;;;;5100860;28;20197;-77
2021/01/14 11:10:48;;;;;;;4.00;2.28;;;5.00;99.90;;;;;;5077420;28;20217;-77
2021/01/14 11:13:15;;;;;;;4.55;2.50;;;5.10;99.90;;;;;;5084801;28;20189;-76
2021/01/14 11:15:43;;;;;;;5.80;2.60;;;5.10;99.90;;;;;;5096499;28;20622;-76
2021/01/14 11:18:10;;;;;;;3.22;2.30;;;5.10;99.90;;;;;;5092295;28;20266;-76
2021/01/14 11:20:37;;;;;;;4.03;2.22;;;5.20;99.90;;;;;;5098012;28;20198;-76
2021/01/14 11:23:03;;;;;;;5.60;2.65;;;5.10;99.90;;;;;;5101906;28;20210;-75
2021/01/14 11:25:30;;;;;;;6.15;2.00;;;5.10;99.90;;;;;;5090343;28;20191;-78
2021/01/14 11:27:57;;;;;;;5.20;2.13;;;5.10;99.90;;;;;;5074019;28;20534;-79
2021/01/14 11:30:24;;;;;;;5.53;2.45;;;5.10;99.90;;;;;;5077684;28;20209;-79
2021/01/14 11:32:51;;;;;;;3.88;2.45;;;5.10;99.90;;;;;;5090711;28;20243;-79
2021/01/14 11:35:18;;;;;;;7.10;2.85;;;5.10;99.90;;;;;;5073977;28;20206;-79
2021/01/14 11:37:44;;;;;;;5.18;2.63;;;5.10;99.90;;;;;;5091446;28;20236;-75
2021/01/14 11:40:11;;;;;;;4.38;2.80;;;5.10;99.90;;;;;;5087109;28;20688;-77
2021/01/14 11:42:37;;;;;;;3.65;2.95;;;5.10;99.90;;;;;;5093680;28;20634;-77
2021/01/14 11:45:05;;;;;;;2.83;1.98;;;5.10;99.90;;;;;;5080725;28;20204;-77
2021/01/14 11:47:31;;;;;;;5.93;2.65;;;5.10;99.90;;;;;;5084459;28;20190;-77
2021/01/14 11:49:59;;;;;;;4.43;2.72;;;5.10;99.90;;;;;;5079886;28;20843;-77
2021/01/14 11:52:25;;;;;;;3.13;2.55;;;5.10;99.90;;;;;;5094177;28;20204;-77
2021/01/14 11:54:51;;;;;;;6.00;3.42;;;5.20;99.90;;;;;;5093142;28;20194;-77
2021/01/14 11:57:18;;;;;;;5.72;2.60;;;5.20;99.90;;;;;;5083850;28;20190;-77
2021/01/14 11:59:44;;;;;;;5.82;2.97;;;5.10;99.90;;;;;;5076247;28;20292;-77
2021/01/14 12:02:10;;;;;;;5.63;3.13;;;5.10;99.90;;;;;;5078887;28;20206;-77
2021/01/14 12:04:37;;;;;;;5.30;3.25;;;5.20;99.90;;;;;;5090095;28;20205;-78
2021/01/14 12:07:04;;;;;;;4.80;3.33;;;5.20;99.90;;;;;;5083010;28;20190;-77
2021/01/14 12:09:31;;;;;;;4.88;3.30;;;5.20;99.90;;;;;;5093777;28;20529;-77
2021/01/14 12:11:57;;;;;;;3.80;2.70;;;5.30;99.90;;;;;;5074169;28;20205;-77
2021/01/14 12:14:23;;;;;;;3.72;3.35;;;5.30;99.90;;;;;;5073420;28;20515;-77
2021/01/14 12:16:50;;;;;;;6.32;3.35;;;5.30;99.90;;;;;;5086002;28;20204;-77
2021/01/14 12:19:16;;;;;;;5.68;3.83;;;5.30;99.90;;;;;;5092159;28;20235;-77
2021/01/14 12:21:42;;;;;;;4.30;2.90;;;5.30;99.90;;;;;;5092666;28;20246;-77
2021/01/14 12:24:10;;;;;;;8.80;3.75;;;5.30;99.90;;;;;;5074216;28;20209;-77
2021/01/14 12:26:36;;;;;;;4.22;2.85;;;5.30;99.90;;;;;;5078502;28;20258;-77
2021/01/14 12:29:04;;;;;;;7.13;3.90;;;5.30;99.90;;;;;;5075170;28;20198;-77
2021/01/14 12:31:35;;;;;;;3.58;2.53;;;5.40;99.90;;;;;;5072584;28;20228;-78
2021/01/14 12:34:01;;;;;;;3.50;2.80;;;5.40;99.90;;;;;;5074227;28;20186;-77
2021/01/14 12:36:27;;;;;;;5.65;3.40;;;5.40;99.90;;;;;;5078599;28;20194;-76
2021/01/14 12:38:53;;;;;;;6.47;2.83;;;5.40;99.90;;;;;;5078232;28;20263;-77
2021/01/14 12:41:29;;;;;;;3.83;2.78;;;5.40;99.90;;;;;;5072859;28;20202;-78
2021/01/14 12:43:55;;;;;;;6.07;3.53;;;5.40;99.90;;;;;;5073678;28;20220;-77
2021/01/14 12:46:21;;;;;;;5.28;3.72;;;5.40;99.90;;;;;;5079789;28;20190;-77
2021/01/14 12:48:48;;;;;;;4.85;3.35;;;5.40;99.90;;;;;;5077004;28;20684;-77
2021/01/14 12:51:20;;;;;;;4.97;3.20;;;5.40;99.90;;;;;;5088080;28;20285;-76
2021/01/14 12:53:47;;;;;;;5.53;3.72;;;5.40;99.90;;;;;;5088977;28;20557;-76
2021/01/14 12:56:14;;;;;;;4.07;2.45;;;5.50;99.90;;;;;;5092317;28;20205;-78
2021/01/14 12:58:42;;;;;;;5.93;2.88;;;5.40;99.90;;;;;;5083113;28;20205;-76
2021/01/14 13:01:08;;;;;;;5.15;3.20;;;5.40;99.90;;;;;;5071763;28;20196;-74
2021/01/14 13:03:34;;;;;;;4.40;3.03;;;5.50;99.90;;;;;;5072150;28;20198;-76
2021/01/14 13:06:01;;;;;;;4.13;2.90;;;5.40;99.90;;;;;;5071920;28;20190;-76